createdAt,value
2022-08-16T00:02:17.308Z,98851.38
2022-08-16T00:05:21.792Z,98842.03
2022-08-16T00:08:30.582Z,98850.22
2022-08-16T00:11:41.892Z,98856.34
2022-08-16T00:14:44.986Z,98856.25
2022-08-16T00:17:57.036Z,98864.34
2022-08-16T00:21:00.235Z,98868.81
2022-08-16T00:24:05.101Z,98868.91
2022-08-16T00:27:14.637Z,98872.16
2022-08-16T00:30:28.751Z,98875.97
2022-08-16T00:33:32.128Z,98873.59
2022-08-16T00:36:37.060Z,98873.78
2022-08-16T00:39:57.685Z,98874.69
2022-08-16T00:43:01.820Z,98863.09
2022-08-16T00:46:34.299Z,98867.66
2022-08-16T00:49:39.589Z,98865.94
2022-08-16T00:52:51.425Z,98876.78
2022-08-16T00:55:56.868Z,98877.75
2022-08-16T00:59:00.524Z,98870.72
2022-08-16T01:02:30.613Z,98872.87
2022-08-16T01:05:30.525Z,98884.84
2022-08-16T01:08:37.059Z,98891.00
2022-08-16T01:11:54.972Z,98890.56
2022-08-16T01:15:00.447Z,98889.19
2022-08-16T01:18:04.596Z,98907.19
2022-08-16T01:21:34.783Z,98906.50
2022-08-16T01:24:52.646Z,98906.81
2022-08-16T01:28:01.496Z,98916.97
2022-08-16T01:31:08.439Z,98918.31
2022-08-16T01:34:24.982Z,98922.81
2022-08-16T01:37:35.641Z,98919.09
2022-08-16T01:40:40.123Z,98916.47
2022-08-16T01:43:45.056Z,98915.09
2022-08-16T01:46:57.755Z,98921.38
2022-08-16T01:50:41.799Z,98916.34
2022-08-16T01:53:26.517Z,98912.03
2022-08-16T01:56:34.651Z,98911.28
2022-08-16T01:59:39.268Z,98910.56
2022-08-16T02:02:44.156Z,98898.03
2022-08-16T02:05:55.622Z,98908.12
2022-08-16T02:09:00.794Z,98899.50
2022-08-16T02:12:50.125Z,98901.38
2022-08-16T02:15:38.765Z,98903.19
2022-08-16T02:18:48.141Z,98910.84
2022-08-16T02:22:09.206Z,98904.75
2022-08-16T02:25:16.774Z,98893.47
2022-08-16T02:28:23.708Z,98891.53
2022-08-16T02:32:04.540Z,98895.03
2022-08-16T02:34:50.509Z,98900.09
2022-08-16T02:37:56.085Z,98896.56
2022-08-16T02:41:01.846Z,98889.56
2022-08-16T02:44:06.662Z,98886.50
2022-08-16T02:47:12.234Z,98895.34
2022-08-16T02:50:53.796Z,98896.03
2022-08-16T02:53:54.422Z,98886.53
2022-08-16T02:56:59.569Z,98887.66
2022-08-16T03:00:34.114Z,98892.22
2022-08-16T03:04:40.629Z,98889.94
2022-08-16T03:06:57.530Z,98882.88
2022-08-16T03:10:04.364Z,98880.78
2022-08-16T03:13:12.340Z,98891.97
2022-08-16T03:16:37.608Z,98897.78
2022-08-16T03:19:47.503Z,98889.47
2022-08-16T03:22:56.570Z,98895.87
2022-08-16T03:26:00.812Z,98898.03
2022-08-16T03:29:04.580Z,98905.84
2022-08-16T03:32:07.807Z,98905.13
2022-08-16T03:35:10.909Z,98898.44
2022-08-16T03:38:32.886Z,98911.34
2022-08-16T03:41:50.877Z,98919.28
2022-08-16T03:45:03.241Z,98919.78
2022-08-16T03:48:08.070Z,98922.84
2022-08-16T03:51:12.825Z,98937.03
2022-08-16T03:54:20.233Z,98937.16
2022-08-16T03:57:31.798Z,98941.37
2022-08-16T04:00:59.523Z,98944.41
2022-08-16T04:05:46.779Z,98940.13
2022-08-16T05:36:16.200Z,99035.63
2022-08-16T05:39:33.403Z,99032.97
2022-08-16T05:43:11.963Z,99047.84
2022-08-16T05:46:30.211Z,99051.72
2022-08-16T05:49:40.109Z,99046.34
2022-08-16T05:52:44.965Z,99050.19
2022-08-16T05:55:48.889Z,99044.66
2022-08-16T06:32:08.855Z,99068.91
2022-08-16T07:18:07.602Z,99093.50
2022-08-16T07:52:20.788Z,99093.37
2022-08-16T07:55:24.622Z,99093.81
2022-08-16T08:02:47.765Z,99096.41
2022-08-16T08:05:55.986Z,99094.44
2022-08-16T08:09:23.612Z,99088.09
2022-08-16T08:12:32.053Z,99083.19
2022-08-16T08:15:39.234Z,99085.00
2022-08-16T08:19:07.279Z,99081.53
2022-08-16T08:22:28.901Z,99089.03
2022-08-16T08:25:54.263Z,99087.25
2022-08-16T08:29:00.875Z,99090.44
2022-08-16T08:32:57.851Z,99089.38
2022-08-16T08:35:29.906Z,99088.50
2022-08-16T08:38:46.008Z,99081.41
2022-08-16T08:41:51.326Z,99083.03
2022-08-16T08:44:55.961Z,99082.09
2022-08-16T08:47:58.849Z,99079.84
2022-08-16T08:51:09.104Z,99079.31
2022-08-16T08:54:20.493Z,99084.66
2022-08-16T08:57:26.555Z,99071.25
2022-08-16T09:00:31.945Z,99069.19
2022-08-16T09:03:54.067Z,99072.50
2022-08-16T09:07:01.128Z,99069.97
2022-08-16T09:10:20.310Z,99067.66
2022-08-16T09:13:32.724Z,99071.22
2022-08-16T09:17:02.476Z,99074.47
2022-08-16T09:20:08.045Z,99067.88
2022-08-16T09:23:11.508Z,99069.31
2022-08-16T09:26:45.727Z,99060.19
2022-08-16T09:29:45.465Z,99059.50
2022-08-16T09:33:10.427Z,99059.19
2022-08-16T09:36:32.220Z,99056.37
2022-08-16T12:21:59.589Z,98983.72
2022-08-16T12:49:42.150Z,98982.88
2022-08-16T13:04:20.863Z,98974.53
2022-08-16T13:26:57.789Z,98953.97
2022-08-16T13:53:43.022Z,98939.59
2022-08-16T14:09:16.971Z,98931.97
2022-08-16T14:12:46.099Z,98934.63
2022-08-16T14:16:23.951Z,98925.66
2022-08-16T14:19:59.954Z,98935.25
2022-08-16T14:23:14.713Z,98939.19
2022-08-16T14:26:57.573Z,98945.16
2022-08-16T14:30:01.391Z,98930.75
2022-08-16T14:33:14.554Z,98930.75
2022-08-16T14:36:31.346Z,98921.19
2022-08-16T14:39:39.411Z,98936.00
2022-08-16T14:51:10.705Z,98932.94
2022-08-16T14:54:36.533Z,98931.00
2022-08-16T14:58:06.999Z,98934.28
2022-08-16T15:04:58.823Z,98939.78
2022-08-16T15:08:02.364Z,98922.75
2022-08-16T15:12:26.276Z,98922.72
2022-08-16T15:19:31.270Z,98932.47
2022-08-16T15:26:45.242Z,98940.97
2022-08-16T15:29:53.867Z,98931.47
2022-08-16T15:36:57.065Z,98936.31
2022-08-16T15:40:01.405Z,98930.47
2022-08-16T15:47:26.472Z,98942.44
2022-08-16T15:58:58.978Z,98958.47
2022-08-16T16:02:33.585Z,98951.25
2022-08-16T16:13:42.914Z,98946.00
2022-08-16T16:45:25.858Z,98956.53
2022-08-16T16:52:58.068Z,98959.56
2022-08-16T16:56:20.380Z,98964.25
2022-08-16T16:59:50.050Z,98963.81
2022-08-16T17:15:52.225Z,98975.19
2022-08-16T17:29:51.439Z,99001.47
2022-08-16T20:34:44.752Z,99128.78
2022-08-16T20:37:48.685Z,99130.53
2022-08-16T20:40:51.572Z,99136.09
2022-08-16T20:43:55.277Z,99139.06
2022-08-16T20:46:58.047Z,99138.41
2022-08-16T20:50:03.780Z,99138.84
2022-08-16T20:53:06.964Z,99142.53
2022-08-16T20:56:11.212Z,99134.44
2022-08-16T20:59:14.120Z,99144.84
2022-08-16T21:02:24.643Z,99143.34
2022-08-16T21:05:31.310Z,99145.59
2022-08-16T21:08:53.245Z,99143.06
2022-08-16T21:11:58.976Z,99147.78
2022-08-16T21:15:08.769Z,99145.91
2022-08-16T21:18:11.625Z,99152.88
2022-08-16T21:21:14.703Z,99152.44
2022-08-16T21:24:17.491Z,99154.87
2022-08-16T21:27:20.722Z,99161.50
2022-08-16T21:30:32.165Z,99156.91
2022-08-16T21:33:35.567Z,99153.72
2022-08-16T21:36:39.475Z,99154.53
2022-08-16T21:39:42.675Z,99159.44
2022-08-16T21:42:47.107Z,99163.84
2022-08-16T21:45:54.109Z,99162.81
2022-08-16T21:48:58.405Z,99164.53
2022-08-16T21:52:05.040Z,99166.69
2022-08-16T21:55:10.200Z,99170.41
2022-08-16T21:58:16.905Z,99176.50
2022-08-16T22:01:23.228Z,99172.69
2022-08-16T22:04:36.729Z,99178.22
2022-08-16T22:07:43.190Z,99179.38
2022-08-16T22:11:04.165Z,99183.69
2022-08-16T22:14:09.824Z,99176.63
2022-08-16T22:17:12.937Z,99182.06
2022-08-16T22:20:16.425Z,99172.72
2022-08-16T22:23:22.327Z,99175.78
2022-08-16T22:26:39.611Z,99174.12
2022-08-16T22:29:46.958Z,99172.13
2022-08-16T22:32:50.064Z,99176.91
2022-08-16T22:35:53.317Z,99175.66
2022-08-16T22:38:58.802Z,99169.56
2022-08-16T22:42:08.643Z,99177.28
2022-08-16T22:45:12.268Z,99168.44
2022-08-16T22:48:16.194Z,99174.94
2022-08-16T22:51:19.812Z,99185.25
2022-08-16T22:54:44.160Z,99177.94
2022-08-16T22:57:46.304Z,99171.84
2022-08-16T23:00:50.329Z,99166.69
2022-08-16T23:03:55.766Z,99169.06
2022-08-16T23:06:58.931Z,99172.16
2022-08-16T23:10:01.946Z,99173.28
2022-08-16T23:13:06.699Z,99180.25
2022-08-16T23:16:11.867Z,99180.59
2022-08-16T23:19:16.964Z,99180.00
2022-08-16T23:22:19.710Z,99178.81
2022-08-16T23:25:31.256Z,99180.84
2022-08-16T23:28:34.378Z,99172.25
2022-08-16T23:31:38.871Z,99161.84
2022-08-16T23:34:41.781Z,99166.12
2022-08-16T23:37:46.265Z,99164.59
2022-08-16T23:40:50.239Z,99160.78
2022-08-16T23:43:53.661Z,99159.84
2022-08-16T23:46:56.945Z,99168.13
2022-08-16T23:50:03.531Z,99163.72
2022-08-16T23:53:13.450Z,99173.09
2022-08-16T23:56:19.861Z,99171.06
2022-08-16T23:59:22.675Z,99167.88
